Weather observations for the past three days for
Chino, Chino Airport
Imperial (Metric)
Date Time (pdt) Wind (mph) Vis. (mi.) Weather Sky Cond. Temperature (ºF) Relative Humidity Wind Chill (°F) Heat Index (°F) Pressure Precipitation (in)
Air Dwpt 6 hour altimeter (in) sea level (mb) 1 hr 3 hr 6 hr
Max. Min.
10 13:53 W 9 G 18 10.00 Fair CLR 87.1 52 30% 85 29.91 1012.2
10 12:53 W 12 10.00 Fair CLR 86 55 35% 84 29.92 1012.5
10 11:53 SW 5 10.00 Fair CLR 80.1 57.9 47% 81 29.92 1012.7
10 10:53 Vrbl 3 5.00 Fair with Haze CLR 72 57.9 72 57.9 61% 29.94 1013.4
10 09:53 Calm 4.00 A Few Clouds with Haze FEW010 66 57.9 75% 29.94 1013.5
10 08:53 Calm 3.00 Fog/Mist OVC006 61 57 87% 29.94 1013.4
10 07:53 E 3 3.00 Fog/Mist OVC006 60.1 57 90% 29.94 1013.5
10 06:53 Calm 4.00 Fog/Mist OVC005 59 57 93% 29.93 1013.1
10 05:53 Calm 4.00 Fog/Mist OVC004 59 57 93% 29.92 1012.6
10 04:53 NW 3 3.00 Fog/Mist OVC002 57.9 57 60.1 55 97% 29.91 1012.5
10 03:53 W 6 5.00 Fog/Mist CLR 57 55 93% 29.92 1012.4
10 02:53 Calm 6.00 Fog/Mist CLR 55.9 54 93% 29.92 1012.5
10 01:53 W 5 6.00 Fog/Mist CLR 57 55 93% 29.92 1012.6
10 00:53 W 3 7.00 Fair CLR 59 55.9 90% 29.93 1013.1
09 23:53 W 6 8.00 Fair CLR 57.9 55 90% 29.93 1013.1
09 22:53 W 7 9.00 Fair CLR 59 55.9 82.9 59 90% 29.93 1013.2
09 21:53 W 5 10.00 Fair CLR 61 55.9 84% 29.93 1013.0
09 20:53 W 10 10.00 Fair CLR 64.9 57 76% 29.9 1012.2
09 19:53 W 12 10.00 Fair CLR 68 55.9 65% 29.88 1011.4
09 18:53 W 10 10.00 Fair CLR 75 57 54% 78 29.87 1010.9
09 17:53 W 15 10.00 Fair CLR 80.1 57 45% 80 29.85 1010.5
09 16:53 W 16 10.00 Fair CLR 82.9 54 87.1 71.1 37% 82 29.85 1010.3
09 15:53 W 15 10.00 Fair CLR 86 55 35% 84 29.85 1010.3
09 14:53 W 15 10.00 Fair CLR 86 55 35% 84 29.87 1010.9
09 13:53 NW 8 G 20 10.00 Fair CLR 84.9 55.9 37% 84 29.89 1011.5
09 12:53 NW 10 10.00 Fair CLR 82.9 59 44% 83 29.9 1012.1
09 11:53 Vrbl 3 10.00 Fair CLR 79 55.9 45% 80 29.92 1012.7
09 10:53 Calm 6.00 Fair with Haze CLR 72 57 72 57.9 59% 29.94 1013.4
09 09:53 Calm 4.00 Partly Cloudy with Haze SCT010 64.9 57 76% 29.95 1013.7
09 08:53 Calm 2.00 Fog/Mist OVC006 61 57 87% 29.96 1014.1
09 07:53 Calm 2.50 Fog/Mist OVC005 59 57 93% 29.96 1014.0
09 06:53 Calm 2.00 Fog/Mist OVC003 57.9 57 97% 29.95 1013.8
09 05:53 SW 3 3.00 Fog/Mist OVC004 57.9 57 97% 29.94 1013.3
09 04:53 Calm 3.00 Fog/Mist OVC004 57.9 57 60.1 54 97% 29.94 1013.2
09 03:53 NW 3 3.00 Fog/Mist OVC004 57.9 57 97% 29.94 1013.3
09 02:53 W 5 4.00 Fog/Mist CLR 55.9 54 93% 29.94 1013.4
09 01:53 Calm 6.00 Fog/Mist CLR 57.9 55 90% 29.95 1013.8
09 00:53 Calm 6.00 Fog/Mist CLR 57 55 93% 29.97 1014.2
08 23:53 Calm 7.00 Fair CLR 60.1 55.9 86% 29.97 1014.3
08 22:53 SW 5 8.00 Fair CLR 60.1 55 81 59 84% 29.97 1014.5
08 21:53 W 7 10.00 Fair CLR 61 55.9 84% 29.97 1014.4
08 20:53 W 8 10.00 Fair CLR 63 55.9 78% 29.95 1013.8
08 19:53 W 10 10.00 Fair CLR 66.9 55.9 68% 29.93 1013.0
08 18:53 W 12 10.00 Fair CLR 73 55.9 55% 29.91 1012.5
08 17:53 SW 14 10.00 Fair CLR 78.1 55.9 47% 79 29.9 1012.1
08 16:53 SW 14 10.00 Fair CLR 81 57 84 66.9 44% 81 29.91 1012.3
08 15:53 W 12 G 20 10.00 Fair CLR 82.9 57 41% 82 29.92 1012.8
08 14:53 W 9 10.00 Fair CLR 82 55.9 41% 82 29.94 1013.3
08 13:53 NW 8 10.00 Fair CLR 82 57.9 44% 82 29.95 1013.8
08 12:53 Calm 10.00 Fair CLR 80.1 57 45% 80 29.97 1014.4
08 11:53 Vrbl 5 10.00 Fair with Haze CLR 75 57 54% 78 29.99 1015.3
08 10:53 Vrbl 3 7.00 Fair with Haze CLR 68 55.9 68 57.9 65% 30.02 1016.1
08 09:53 SW 5 5.00 Overcast with Haze OVC012 64 55.9 75% 30.02 1016.3
08 08:53 Calm 5.00 Overcast with Haze OVC009 61 55.9 84% 30.03 1016.5
08 07:53 Calm 5.00 Fog/Mist OVC009 60.1 55.9 86% 30.04 1016.7
08 06:53 Calm 6.00 Fog/Mist OVC009 59 55.9 90% 30.03 1016.5
08 05:53 W 3 7.00 Overcast OVC007 57.9 55.9 93% 30.02 1016.1
08 04:53 NW 6 6.00 Fog/Mist OVC007 57.9 55.9 60.1 54 93% 30.01 1015.6
08 03:53 Calm 6.00 Fog/Mist FEW011 55 54 96% 30 1015.4
08 02:53 Calm 7.00 Fair CLR 55.9 54 93% 30 1015.4
08 01:53 W 3 9.00 Fair CLR 55.9 54 93% 30.01 1015.7
08 00:53 Calm 10.00 Fair CLR 57 54 90% 30.02 1016.1
07 23:53 W 5 10.00 Fair CLR 59 55 87% 30.02 1016.1
07 22:53 W 3 10.00 Fair CLR 60.1 55 79 59 84% 30.01 1015.9
07 21:53 W 8 10.00 Fair CLR 61 55 81% 30.01 1015.7
07 20:53 W 12 10.00 Fair CLR 64.9 55 70% 29.98 1015.0
07 19:53 W 10 10.00 Fair CLR 68 55 63% 29.96 1014.1
07 18:53 SW 13 10.00 Fair CLR 72 55 55% 29.94 1013.4
07 17:53 W 16 10.00 A Few Clouds FEW100 75.9 55 48% 78 29.92 1012.9
07 16:53 W 15 10.00 A Few Clouds FEW100 79 55 84.9 73.9 44% 80 29.92 1012.9
07 15:53 SW 20 G 25 10.00 A Few Clouds FEW100 81 54 39% 81 29.92 1012.6
07 14:53 SW 17 10.00 A Few Clouds FEW150 82 55 40% 81 29.94 1013.2
Date Time (pdt) Wind (mph) Vis. (mi.) Weather Sky Cond. Air Dwpt Max. Min. Relative Humidity Wind Chill (°F) Heat Index (°F) altimeter (in) sea level (mb) 1 hr 3 hr 6 hr
6 hour
Temperature (ºF) Pressure Precipitation (in)